Airfield :
LOGIN :

Register | Disclaimer

   EN    FR    IT 

 










Legend :    VFR   Marginal VFR   IFR   Intensive IFR   Very Intensive IFR
Visi :
Ceiling :
>= 8 km
>= 3000ft
5 to 8 km
1000 to 3000 ft
1500m to 5 km
500 to 1000 ft
800 to 1500m
200 to 500 ft
< 800m
< 200 ft
Symbols :   Thunderstorms  Fog  Heavy snow  Heavy precipitations  Wind > 20 kt
SIGMETs :     Misc.  Thunderstorms  Icing  Turbulence  Mountain Waves  Volcanic Ashes







- Airport Elevation : 197 ft
- IATA code : XOG
- Download approach charts


LFMO - Orange

CURRENT METAR :
  • 151000Z AUTO 15015KT 120V180 9999 ///TCU 22/08 Q1011 TEMPO 14020G35KT BECMG NSC

EXPIRED METARs :
  • 150930Z AUTO 14012KT 9999 ///CB 22/08 Q1011 TEMPO 14020G35KT BECMG NSC
  • 150900Z AUTO 13016KT CAVOK 22/08 Q1011 TEMPO 14015G25KT
  • 150830Z AUTO 14014G25KT CAVOK 22/08 Q1010 NOSIG
  • 150800Z AUTO 14014KT CAVOK 21/08 Q1010
  • 150730Z AUTO 14013KT CAVOK 21/08 Q1010 NOSIG

TAF TAF LFMO
Valid from the 15 at 09:00 until the 16 at 09:00 UTC


150800Z 1509/1609 14015KT CAVOK
TEMPO 1509/1519 14015G25KT
PROB30
TEMPO 1511/1515 14020G35KT
BECMG 1520/1522 35005KT
No reported NOTAMs for that airfield.
4 SIGMETs reported for the Marseille FIR (LFMM) :
 
Embedded thunderstorms
LFMM SIGMET 9 VALID 151000/151200 LFPW
LFMM MARSEILLE FIR/UIR EMBD TS FCST WI N4045 E00430 - N4200 E00430 - N4200 E00345 - N4330 E00315 - N4300 E00530 - N3900 E00730 - N3900 E00545 - N4045 E00430 TOP FL360 MOV N 5KT NC=
Severe turbulence
LFMM SIGMET 8 VALID 151000/151200 LFPW
LFMM MARSEILLE FIR/UIR SEV TURB FCST WI N4315 E00245 - N4545 E00300 - N4530 E00345 - N4415 E00445 - N4345 E00700 - N4245 E00745 - N4315 E00245 SFC/FL070 STNR NC=
Embedded thunderstorms
LFMM SIGMET 7 VALID 150800/151000 LFPW
LFMM MARSEILLE FIR/UIR EMBD TS FCST WI N3900 E00700 - N3900 E00430 - N4200 E00430 - N4200 E00345 - N4330 E00245 - N4345 E00245 - N4300 E00500 - N3900 E00700 TOP FL360 MOV N 5KT NC=
Severe turbulence
LFMM SIGMET 6 VALID 150800/151000 LFPW
LFMM MARSEILLE FIR/UIR SEV TURB FCST WI N4315 E00230 - N4545 E00300 - N4515 E00445 - N4415 E00445 - N4400 E00630 - N4245 E00715 - N4315 E00230 SFC/FL070 STNR NC=



MET'MAP, your aeronautical weather chart ! - Copyright ORBIFLY December 2007 - Disclaimer

ORBIFLY MET'MAP TEAM :

Programming & Development : Alexandra Zaïnal
Concept & Development : Baudouin d'Aumeries
Co-Development & Prog : Marc-Olivier Méhu
Technical & hardware support : Manuel Goepfert

Contact : metmap@orbifly.com




SOURCES & CREDITS :

   NOAA